sensor_id;sensor_type;location;lat;lon;timestamp;pressure;altitude;pressure_sealevel;temperature;humidity
33151;BME280;19508;42.578;23.416;2023-03-19T00:01:41;94210.69;;;0.02;70.17
33151;BME280;19508;42.578;23.416;2023-03-19T00:04:07;94203.84;;;0.07;70.31
33151;BME280;19508;42.578;23.416;2023-03-19T00:06:32;94202.19;;;0.06;70.11
33151;BME280;19508;42.578;23.416;2023-03-19T00:08:57;94199.09;;;0.03;70.43
33151;BME280;19508;42.578;23.416;2023-03-19T00:11:23;94203.56;;;0.02;70.15
33151;BME280;19508;42.578;23.416;2023-03-19T00:13:49;94198.06;;;-0.11;70.59
33151;BME280;19508;42.578;23.416;2023-03-19T00:16:14;94190.66;;;-0.01;70.23
33151;BME280;19508;42.578;23.416;2023-03-19T00:18:40;94198.91;;;0.04;70.12
33151;BME280;19508;42.578;23.416;2023-03-19T00:21:05;94192.34;;;0.00;69.92
33151;BME280;19508;42.578;23.416;2023-03-19T00:23:31;94177.44;;;-0.16;71.04
33151;BME280;19508;42.578;23.416;2023-03-19T00:25:57;94177.59;;;-0.17;70.54
33151;BME280;19508;42.578;23.416;2023-03-19T00:28:22;94185.63;;;-0.11;70.59
33151;BME280;19508;42.578;23.416;2023-03-19T00:30:47;94172.59;;;-0.12;70.65
33151;BME280;19508;42.578;23.416;2023-03-19T00:33:13;94174.16;;;-0.03;70.97
33151;BME280;19508;42.578;23.416;2023-03-19T00:35:39;94171.53;;;0.12;69.73
33151;BME280;19508;42.578;23.416;2023-03-19T00:38:05;94181.22;;;0.19;69.44
33151;BME280;19508;42.578;23.416;2023-03-19T00:40:30;94167.91;;;0.27;69.29
33151;BME280;19508;42.578;23.416;2023-03-19T00:42:59;94171.38;;;0.28;68.97
33151;BME280;19508;42.578;23.416;2023-03-19T00:45:25;94160.47;;;0.23;68.34
33151;BME280;19508;42.578;23.416;2023-03-19T00:47:51;94162.31;;;0.22;68.35
33151;BME280;19508;42.578;23.416;2023-03-19T00:50:16;94163.13;;;0.38;68.18
33151;BME280;19508;42.578;23.416;2023-03-19T00:52:42;94152.72;;;0.36;68.18
33151;BME280;19508;42.578;23.416;2023-03-19T00:55:07;94172.44;;;0.34;68.13
33151;BME280;19508;42.578;23.416;2023-03-19T00:57:33;94156.63;;;0.25;68.35
33151;BME280;19508;42.578;23.416;2023-03-19T00:59:58;94159.94;;;0.27;67.96
33151;BME280;19508;42.578;23.416;2023-03-19T01:02:23;94161.31;;;0.23;68.02
33151;BME280;19508;42.578;23.416;2023-03-19T01:04:49;94155.56;;;0.20;68.17
33151;BME280;19508;42.578;23.416;2023-03-19T01:07:15;94165.41;;;0.11;68.52
33151;BME280;19508;42.578;23.416;2023-03-19T01:09:41;94163.94;;;-0.06;69.29
33151;BME280;19508;42.578;23.416;2023-03-19T01:12:07;94164.19;;;-0.16;70.02
33151;BME280;19508;42.578;23.416;2023-03-19T01:14:33;94154.13;;;-0.20;69.71
33151;BME280;19508;42.578;23.416;2023-03-19T01:16:59;94153.06;;;-0.11;69.67
33151;BME280;19508;42.578;23.416;2023-03-19T01:19:25;94151.47;;;-0.20;70.10
33151;BME280;19508;42.578;23.416;2023-03-19T01:21:51;94149.41;;;-0.10;69.69
33151;BME280;19508;42.578;23.416;2023-03-19T01:24:16;94152.41;;;-0.13;69.93
33151;BME280;19508;42.578;23.416;2023-03-19T01:26:42;94145.81;;;-0.17;69.89
33151;BME280;19508;42.578;23.416;2023-03-19T01:29:08;94140.16;;;-0.29;69.73
33151;BME280;19508;42.578;23.416;2023-03-19T01:31:34;94145.00;;;-0.18;70.16
33151;BME280;19508;42.578;23.416;2023-03-19T01:34:00;94150.13;;;-0.16;70.08
33151;BME280;19508;42.578;23.416;2023-03-19T01:36:26;94141.38;;;-0.17;69.96
33151;BME280;19508;42.578;23.416;2023-03-19T01:38:52;94139.81;;;-0.11;69.66
33151;BME280;19508;42.578;23.416;2023-03-19T01:41:18;94142.13;;;-0.08;69.74
33151;BME280;19508;42.578;23.416;2023-03-19T01:43:43;94137.28;;;-0.05;69.20
33151;BME280;19508;42.578;23.416;2023-03-19T01:46:29;94141.84;;;0.02;69.31
33151;BME280;19508;42.578;23.416;2023-03-19T01:49:06;94133.66;;;0.26;68.15
33151;BME280;19508;42.578;23.416;2023-03-19T01:51:36;94144.94;;;0.05;68.83
33151;BME280;19508;42.578;23.416;2023-03-19T01:54:05;94151.69;;;-0.07;69.20
33151;BME280;19508;42.578;23.416;2023-03-19T01:56:33;94130.38;;;-0.29;69.65
33151;BME280;19508;42.578;23.416;2023-03-19T01:59:10;94143.84;;;-0.15;69.15
33151;BME280;19508;42.578;23.416;2023-03-19T02:01:42;94148.38;;;-0.24;69.30
33151;BME280;19508;42.578;23.416;2023-03-19T02:04:12;94144.63;;;-0.30;68.85
33151;BME280;19508;42.578;23.416;2023-03-19T02:06:38;94150.63;;;-0.36;69.30
33151;BME280;19508;42.578;23.416;2023-03-19T02:09:05;94153.47;;;-0.37;69.89
33151;BME280;19508;42.578;23.416;2023-03-19T02:11:31;94151.63;;;-0.37;69.52
33151;BME280;19508;42.578;23.416;2023-03-19T02:13:56;94154.63;;;-0.40;69.85
33151;BME280;19508;42.578;23.416;2023-03-19T02:16:22;94154.06;;;-0.50;70.04
33151;BME280;19508;42.578;23.416;2023-03-19T02:18:47;94153.56;;;-0.31;69.66
33151;BME280;19508;42.578;23.416;2023-03-19T02:21:15;94160.94;;;-0.26;69.57
33151;BME280;19508;42.578;23.416;2023-03-19T02:26:32;94166.72;;;-0.22;69.50
33151;BME280;19508;42.578;23.416;2023-03-19T02:28:58;94160.63;;;-0.46;69.74
33151;BME280;19508;42.578;23.416;2023-03-19T02:31:23;94159.81;;;-0.46;70.46
33151;BME280;19508;42.578;23.416;2023-03-19T02:34:04;94153.94;;;-0.34;70.26
33151;BME280;19508;42.578;23.416;2023-03-19T02:36:42;94160.13;;;-0.26;70.65
33151;BME280;19508;42.578;23.416;2023-03-19T02:39:21;94152.13;;;-0.18;71.24
33151;BME280;19508;42.578;23.416;2023-03-19T02:41:48;94149.16;;;0.14;70.30
33151;BME280;19508;42.578;23.416;2023-03-19T02:44:15;94145.94;;;0.34;69.28
33151;BME280;19508;42.578;23.416;2023-03-19T02:46:44;94149.91;;;0.38;68.60
33151;BME280;19508;42.578;23.416;2023-03-19T02:49:09;94147.97;;;0.32;68.86
33151;BME280;19508;42.578;23.416;2023-03-19T02:51:35;94156.53;;;0.34;68.29
33151;BME280;19508;42.578;23.416;2023-03-19T02:54:02;94156.00;;;0.23;68.03
33151;BME280;19508;42.578;23.416;2023-03-19T02:56:27;94151.72;;;0.22;67.41
33151;BME280;19508;42.578;23.416;2023-03-19T02:58:53;94144.41;;;0.10;67.66
33151;BME280;19508;42.578;23.416;2023-03-19T03:01:18;94149.06;;;0.08;68.21
33151;BME280;19508;42.578;23.416;2023-03-19T03:03:43;94154.09;;;0.03;67.92
33151;BME280;19508;42.578;23.416;2023-03-19T03:06:09;94148.97;;;0.16;67.70
33151;BME280;19508;42.578;23.416;2023-03-19T03:08:34;94149.34;;;0.13;68.21
33151;BME280;19508;42.578;23.416;2023-03-19T03:11:00;94144.69;;;0.00;68.08
33151;BME280;19508;42.578;23.416;2023-03-19T03:13:26;94149.41;;;-0.10;68.24
33151;BME280;19508;42.578;23.416;2023-03-19T03:15:52;94148.06;;;-0.06;68.06
33151;BME280;19508;42.578;23.416;2023-03-19T03:18:17;94156.81;;;-0.06;68.49
33151;BME280;19508;42.578;23.416;2023-03-19T03:20:43;94153.88;;;-0.11;68.22
33151;BME280;19508;42.578;23.416;2023-03-19T03:23:23;94167.66;;;-0.15;68.30
33151;BME280;19508;42.578;23.416;2023-03-19T03:25:49;94166.69;;;-0.37;68.58
33151;BME280;19508;42.578;23.416;2023-03-19T03:28:15;94172.78;;;-0.37;68.57
33151;BME280;19508;42.578;23.416;2023-03-19T03:30:41;94168.94;;;-0.49;68.99
33151;BME280;19508;42.578;23.416;2023-03-19T03:33:07;94173.59;;;-0.51;69.45
33151;BME280;19508;42.578;23.416;2023-03-19T03:35:32;94173.94;;;-0.54;68.92
33151;BME280;19508;42.578;23.416;2023-03-19T03:37:58;94171.84;;;-0.59;69.85
33151;BME280;19508;42.578;23.416;2023-03-19T03:40:23;94183.22;;;-0.58;69.92
33151;BME280;19508;42.578;23.416;2023-03-19T03:42:49;94175.34;;;-0.66;70.22
33151;BME280;19508;42.578;23.416;2023-03-19T03:45:15;94178.63;;;-0.64;70.01
33151;BME280;19508;42.578;23.416;2023-03-19T03:47:40;94181.34;;;-0.72;70.21
33151;BME280;19508;42.578;23.416;2023-03-19T03:50:06;94187.09;;;-0.69;70.25
33151;BME280;19508;42.578;23.416;2023-03-19T03:52:35;94187.44;;;-0.72;70.08
33151;BME280;19508;42.578;23.416;2023-03-19T03:55:01;94184.16;;;-0.74;70.19
33151;BME280;19508;42.578;23.416;2023-03-19T03:57:26;94189.44;;;-0.74;70.03
33151;BME280;19508;42.578;23.416;2023-03-19T03:59:52;94188.31;;;-0.79;70.10
33151;BME280;19508;42.578;23.416;2023-03-19T04:02:18;94181.56;;;-0.82;70.56
33151;BME280;19508;42.578;23.416;2023-03-19T04:04:44;94182.84;;;-0.78;70.64
33151;BME280;19508;42.578;23.416;2023-03-19T04:07:10;94187.91;;;-0.91;69.98
33151;BME280;19508;42.578;23.416;2023-03-19T04:09:35;94186.09;;;-0.91;70.86
33151;BME280;19508;42.578;23.416;2023-03-19T04:12:01;94183.81;;;-0.94;70.96
33151;BME280;19508;42.578;23.416;2023-03-19T04:14:27;94196.47;;;-0.89;70.79
33151;BME280;19508;42.578;23.416;2023-03-19T04:16:52;94196.03;;;-0.93;70.83
33151;BME280;19508;42.578;23.416;2023-03-19T04:19:18;94186.81;;;-1.05;71.30
33151;BME280;19508;42.578;23.416;2023-03-19T04:21:44;94191.78;;;-1.02;71.44
33151;BME280;19508;42.578;23.416;2023-03-19T04:24:09;94189.97;;;-1.01;70.98
33151;BME280;19508;42.578;23.416;2023-03-19T04:26:36;94189.88;;;-1.16;71.85
33151;BME280;19508;42.578;23.416;2023-03-19T04:29:02;94184.91;;;-1.11;71.37
33151;BME280;19508;42.578;23.416;2023-03-19T04:31:27;94191.44;;;-0.99;71.43
33151;BME280;19508;42.578;23.416;2023-03-19T04:33:53;94188.00;;;-1.07;71.47
33151;BME280;19508;42.578;23.416;2023-03-19T04:36:19;94192.13;;;-1.05;71.42
33151;BME280;19508;42.578;23.416;2023-03-19T04:38:45;94197.63;;;-1.15;72.09
33151;BME280;19508;42.578;23.416;2023-03-19T04:41:11;94194.13;;;-1.07;71.88
33151;BME280;19508;42.578;23.416;2023-03-19T04:43:38;94191.94;;;-1.03;71.94
33151;BME280;19508;42.578;23.416;2023-03-19T04:46:03;94191.75;;;-0.94;71.73
33151;BME280;19508;42.578;23.416;2023-03-19T04:48:28;94195.31;;;-0.87;71.31
33151;BME280;19508;42.578;23.416;2023-03-19T04:50:54;94204.72;;;-0.61;70.78
33151;BME280;19508;42.578;23.416;2023-03-19T04:53:21;94200.03;;;-0.51;70.50
33151;BME280;19508;42.578;23.416;2023-03-19T04:55:47;94191.00;;;-0.57;69.87
33151;BME280;19508;42.578;23.416;2023-03-19T04:58:13;94201.03;;;-0.52;69.90
33151;BME280;19508;42.578;23.416;2023-03-19T05:00:38;94201.25;;;-0.39;69.65
33151;BME280;19508;42.578;23.416;2023-03-19T05:03:04;94188.28;;;-0.25;69.37
33151;BME280;19508;42.578;23.416;2023-03-19T05:05:30;94195.78;;;-0.14;69.27
33151;BME280;19508;42.578;23.416;2023-03-19T05:07:55;94186.69;;;0.03;68.72
33151;BME280;19508;42.578;23.416;2023-03-19T05:10:21;94190.25;;;0.40;67.74
33151;BME280;19508;42.578;23.416;2023-03-19T05:12:47;94192.34;;;0.89;66.33
33151;BME280;19508;42.578;23.416;2023-03-19T05:15:13;94193.69;;;1.35;65.31
33151;BME280;19508;42.578;23.416;2023-03-19T05:17:38;94188.63;;;1.62;64.28
33151;BME280;19508;42.578;23.416;2023-03-19T05:20:04;94182.44;;;1.97;63.97
33151;BME280;19508;42.578;23.416;2023-03-19T05:22:30;94189.34;;;2.20;62.44
33151;BME280;19508;42.578;23.416;2023-03-19T05:24:56;94190.47;;;2.32;62.15
33151;BME280;19508;42.578;23.416;2023-03-19T05:27:21;94186.81;;;2.68;61.42
33151;BME280;19508;42.578;23.416;2023-03-19T05:29:47;94188.97;;;2.92;60.72
33151;BME280;19508;42.578;23.416;2023-03-19T05:32:12;94187.38;;;3.04;59.89
33151;BME280;19508;42.578;23.416;2023-03-19T05:34:38;94189.66;;;3.14;59.04
33151;BME280;19508;42.578;23.416;2023-03-19T05:37:03;94191.31;;;3.08;58.11
33151;BME280;19508;42.578;23.416;2023-03-19T05:39:29;94183.41;;;3.42;57.82
33151;BME280;19508;42.578;23.416;2023-03-19T05:41:54;94189.78;;;3.47;58.16
33151;BME280;19508;42.578;23.416;2023-03-19T05:44:20;94185.13;;;3.76;57.73
33151;BME280;19508;42.578;23.416;2023-03-19T05:46:46;94184.94;;;4.17;57.14
33151;BME280;19508;42.578;23.416;2023-03-19T05:49:12;94179.59;;;4.50;55.32
33151;BME280;19508;42.578;23.416;2023-03-19T05:51:38;94177.94;;;4.62;54.34
33151;BME280;19508;42.578;23.416;2023-03-19T05:54:03;94183.00;;;4.90;54.39
33151;BME280;19508;42.578;23.416;2023-03-19T05:56:29;94184.63;;;4.98;52.98
33151;BME280;19508;42.578;23.416;2023-03-19T05:58:54;94174.41;;;4.81;53.21
33151;BME280;19508;42.578;23.416;2023-03-19T06:01:21;94175.38;;;4.94;53.61
33151;BME280;19508;42.578;23.416;2023-03-19T06:03:46;94182.69;;;5.18;53.07
33151;BME280;19508;42.578;23.416;2023-03-19T06:06:12;94171.63;;;5.15;52.91
33151;BME280;19508;42.578;23.416;2023-03-19T06:08:37;94174.88;;;5.23;52.39
33151;BME280;19508;42.578;23.416;2023-03-19T06:11:03;94177.25;;;5.45;53.10
33151;BME280;19508;42.578;23.416;2023-03-19T06:13:28;94179.44;;;5.54;52.17
33151;BME280;19508;42.578;23.416;2023-03-19T06:15:54;94169.41;;;5.50;52.47
33151;BME280;19508;42.578;23.416;2023-03-19T06:18:20;94175.91;;;5.67;52.35
33151;BME280;19508;42.578;23.416;2023-03-19T06:20:46;94178.50;;;6.12;51.04
33151;BME280;19508;42.578;23.416;2023-03-19T06:23:12;94182.50;;;6.28;49.86
33151;BME280;19508;42.578;23.416;2023-03-19T06:25:38;94179.53;;;6.61;49.06
33151;BME280;19508;42.578;23.416;2023-03-19T06:28:04;94171.09;;;7.00;48.75
33151;BME280;19508;42.578;23.416;2023-03-19T06:30:30;94171.84;;;7.44;48.01
33151;BME280;19508;42.578;23.416;2023-03-19T06:32:56;94175.50;;;7.80;46.10
33151;BME280;19508;42.578;23.416;2023-03-19T06:35:21;94178.25;;;8.03;45.10
33151;BME280;19508;42.578;23.416;2023-03-19T06:37:47;94165.53;;;8.10;43.78
33151;BME280;19508;42.578;23.416;2023-03-19T06:40:13;94178.38;;;8.38;43.77
33151;BME280;19508;42.578;23.416;2023-03-19T06:42:39;94176.16;;;8.47;42.50
33151;BME280;19508;42.578;23.416;2023-03-19T06:45:05;94178.75;;;8.24;43.00
33151;BME280;19508;42.578;23.416;2023-03-19T06:47:31;94173.47;;;8.47;43.39
33151;BME280;19508;42.578;23.416;2023-03-19T06:49:58;94173.00;;;8.50;43.44
33151;BME280;19508;42.578;23.416;2023-03-19T06:52:25;94169.16;;;8.69;42.36
33151;BME280;19508;42.578;23.416;2023-03-19T06:54:50;94170.78;;;8.94;42.65
33151;BME280;19508;42.578;23.416;2023-03-19T06:57:15;94189.22;;;9.02;42.73
33151;BME280;19508;42.578;23.416;2023-03-19T06:59:41;94205.81;;;8.99;42.56
33151;BME280;19508;42.578;23.416;2023-03-19T07:02:10;94196.91;;;9.33;41.96
33151;BME280;19508;42.578;23.416;2023-03-19T07:04:35;94197.88;;;8.92;42.79
33151;BME280;19508;42.578;23.416;2023-03-19T07:07:00;94197.25;;;9.37;41.07
33151;BME280;19508;42.578;23.416;2023-03-19T07:09:27;94185.81;;;9.42;41.97
33151;BME280;19508;42.578;23.416;2023-03-19T07:11:52;94188.94;;;9.79;41.11
33151;BME280;19508;42.578;23.416;2023-03-19T07:14:18;94206.50;;;10.10;39.83
33151;BME280;19508;42.578;23.416;2023-03-19T07:16:43;94194.50;;;10.29;40.08
33151;BME280;19508;42.578;23.416;2023-03-19T07:19:08;94184.53;;;11.14;38.76
33151;BME280;19508;42.578;23.416;2023-03-19T07:21:34;94188.22;;;11.46;37.80
33151;BME280;19508;42.578;23.416;2023-03-19T07:24:00;94188.47;;;11.67;36.72
33151;BME280;19508;42.578;23.416;2023-03-19T07:26:25;94185.81;;;12.16;36.82
33151;BME280;19508;42.578;23.416;2023-03-19T07:28:51;94183.19;;;11.77;36.58
33151;BME280;19508;42.578;23.416;2023-03-19T07:31:17;94178.47;;;12.11;36.21
33151;BME280;19508;42.578;23.416;2023-03-19T07:33:42;94181.19;;;11.45;37.22
33151;BME280;19508;42.578;23.416;2023-03-19T07:36:08;94169.88;;;11.26;38.71
33151;BME280;19508;42.578;23.416;2023-03-19T07:38:34;94171.78;;;11.70;37.67
33151;BME280;19508;42.578;23.416;2023-03-19T07:40:59;94166.50;;;12.02;37.07
33151;BME280;19508;42.578;23.416;2023-03-19T07:43:24;94175.78;;;12.70;37.04
33151;BME280;19508;42.578;23.416;2023-03-19T07:45:50;94179.19;;;12.28;36.88
33151;BME280;19508;42.578;23.416;2023-03-19T07:48:15;94175.22;;;13.00;36.96
33151;BME280;19508;42.578;23.416;2023-03-19T07:50:41;94172.22;;;13.34;34.71
33151;BME280;19508;42.578;23.416;2023-03-19T07:53:07;94178.19;;;13.93;33.64
33151;BME280;19508;42.578;23.416;2023-03-19T07:55:32;94164.84;;;13.24;34.72
33151;BME280;19508;42.578;23.416;2023-03-19T07:57:58;94168.22;;;13.46;34.93
33151;BME280;19508;42.578;23.416;2023-03-19T08:00:24;94171.16;;;13.35;34.54
33151;BME280;19508;42.578;23.416;2023-03-19T08:02:49;94177.69;;;13.44;35.25
33151;BME280;19508;42.578;23.416;2023-03-19T08:05:15;94178.75;;;12.68;35.40
33151;BME280;19508;42.578;23.416;2023-03-19T08:07:41;94176.28;;;11.81;37.30
33151;BME280;19508;42.578;23.416;2023-03-19T08:10:07;94187.81;;;11.98;38.13
33151;BME280;19508;42.578;23.416;2023-03-19T08:12:33;94182.66;;;12.24;36.41
33151;BME280;19508;42.578;23.416;2023-03-19T08:15:04;94183.78;;;12.28;35.04
33151;BME280;19508;42.578;23.416;2023-03-19T08:17:30;94186.44;;;12.50;35.58
33151;BME280;19508;42.578;23.416;2023-03-19T08:19:58;94190.19;;;12.22;35.13
33151;BME280;19508;42.578;23.416;2023-03-19T08:22:23;94182.31;;;12.42;35.45
33151;BME280;19508;42.578;23.416;2023-03-19T08:24:49;94182.78;;;12.34;35.98
33151;BME280;19508;42.578;23.416;2023-03-19T08:27:14;94190.22;;;12.49;36.62
33151;BME280;19508;42.578;23.416;2023-03-19T08:29:40;94188.16;;;12.98;35.63
33151;BME280;19508;42.578;23.416;2023-03-19T08:32:05;94187.84;;;12.57;37.95
33151;BME280;19508;42.578;23.416;2023-03-19T08:34:31;94173.28;;;13.27;34.92
33151;BME280;19508;42.578;23.416;2023-03-19T08:36:57;94178.78;;;13.43;35.62
33151;BME280;19508;42.578;23.416;2023-03-19T08:39:22;94175.47;;;13.88;33.88
33151;BME280;19508;42.578;23.416;2023-03-19T08:41:48;94180.72;;;14.20;33.85
33151;BME280;19508;42.578;23.416;2023-03-19T08:44:13;94164.97;;;14.02;32.96
33151;BME280;19508;42.578;23.416;2023-03-19T08:46:39;94168.78;;;14.21;33.28
33151;BME280;19508;42.578;23.416;2023-03-19T08:49:04;94161.84;;;14.71;34.09
33151;BME280;19508;42.578;23.416;2023-03-19T08:51:29;94153.97;;;14.90;32.57
33151;BME280;19508;42.578;23.416;2023-03-19T08:53:56;94152.50;;;15.74;31.08
33151;BME280;19508;42.578;23.416;2023-03-19T08:56:21;94152.50;;;15.74;31.15
33151;BME280;19508;42.578;23.416;2023-03-19T08:58:47;94146.69;;;15.96;32.28
33151;BME280;19508;42.578;23.416;2023-03-19T09:01:13;94142.63;;;15.88;30.42
33151;BME280;19508;42.578;23.416;2023-03-19T09:03:40;94142.03;;;16.01;30.25
33151;BME280;19508;42.578;23.416;2023-03-19T09:06:08;94134.47;;;15.93;31.23
33151;BME280;19508;42.578;23.416;2023-03-19T09:08:34;94142.97;;;15.71;31.04
33151;BME280;19508;42.578;23.416;2023-03-19T09:10:59;94132.28;;;15.95;31.14
33151;BME280;19508;42.578;23.416;2023-03-19T09:13:25;94140.50;;;15.80;30.75
33151;BME280;19508;42.578;23.416;2023-03-19T09:15:51;94137.59;;;16.21;30.48
33151;BME280;19508;42.578;23.416;2023-03-19T09:18:18;94134.97;;;16.89;30.29
33151;BME280;19508;42.578;23.416;2023-03-19T09:20:45;94134.47;;;16.82;30.94
33151;BME280;19508;42.578;23.416;2023-03-19T09:23:11;94129.59;;;17.13;30.83
33151;BME280;19508;42.578;23.416;2023-03-19T09:25:36;94123.81;;;16.51;30.54
33151;BME280;19508;42.578;23.416;2023-03-19T09:28:02;94135.13;;;17.32;29.40
33151;BME280;19508;42.578;23.416;2023-03-19T09:30:28;94124.19;;;17.37;28.86
33151;BME280;19508;42.578;23.416;2023-03-19T09:32:53;94139.03;;;17.20;29.03
33151;BME280;19508;42.578;23.416;2023-03-19T09:35:19;94134.53;;;15.83;31.21
33151;BME280;19508;42.578;23.416;2023-03-19T09:37:44;94136.25;;;15.64;31.82
33151;BME280;19508;42.578;23.416;2023-03-19T09:40:40;94134.81;;;16.75;29.92
33151;BME280;19508;42.578;23.416;2023-03-19T09:46:08;94133.94;;;17.91;28.71
33151;BME280;19508;42.578;23.416;2023-03-19T09:48:41;94130.31;;;18.19;27.41
33151;BME280;19508;42.578;23.416;2023-03-19T09:51:17;94131.22;;;18.33;28.52
33151;BME280;19508;42.578;23.416;2023-03-19T09:54:02;94132.25;;;18.38;28.33
33151;BME280;19508;42.578;23.416;2023-03-19T09:56:30;94120.72;;;18.03;28.40
33151;BME280;19508;42.578;23.416;2023-03-19T09:58:56;94118.84;;;18.22;28.76
33151;BME280;19508;42.578;23.416;2023-03-19T10:06:35;94120.31;;;18.71;26.28
33151;BME280;19508;42.578;23.416;2023-03-19T10:17:02;94098.97;;;18.92;26.70
33151;BME280;19508;42.578;23.416;2023-03-19T10:22:20;94080.50;;;19.90;25.06
33151;BME280;19508;42.578;23.416;2023-03-19T10:24:47;94082.63;;;19.80;26.45
33151;BME280;19508;42.578;23.416;2023-03-19T10:27:17;94078.50;;;19.68;27.29
33151;BME280;19508;42.578;23.416;2023-03-19T10:29:44;94077.44;;;18.39;27.40
33151;BME280;19508;42.578;23.416;2023-03-19T10:32:17;94077.28;;;19.01;27.18
33151;BME280;19508;42.578;23.416;2023-03-19T10:34:48;94067.94;;;19.48;26.85
33151;BME280;19508;42.578;23.416;2023-03-19T10:37:22;94063.69;;;19.97;26.84
33151;BME280;19508;42.578;23.416;2023-03-19T10:39:51;94058.75;;;19.71;26.52
33151;BME280;19508;42.578;23.416;2023-03-19T10:44:57;94054.38;;;19.98;25.50
33151;BME280;19508;42.578;23.416;2023-03-19T10:47:25;94059.38;;;19.68;25.87
33151;BME280;19508;42.578;23.416;2023-03-19T10:49:51;94048.47;;;18.95;26.54
33151;BME280;19508;42.578;23.416;2023-03-19T10:52:27;94039.63;;;19.85;25.98
33151;BME280;19508;42.578;23.416;2023-03-19T10:54:55;94039.91;;;20.34;24.65
33151;BME280;19508;42.578;23.416;2023-03-19T10:57:26;94038.06;;;20.07;26.28
33151;BME280;19508;42.578;23.416;2023-03-19T10:59:52;94034.50;;;20.42;26.04
33151;BME280;19508;42.578;23.416;2023-03-19T11:02:23;94030.75;;;20.16;27.91
33151;BME280;19508;42.578;23.416;2023-03-19T11:05:29;94030.91;;;19.28;26.13
33151;BME280;19508;42.578;23.416;2023-03-19T11:08:04;94022.69;;;20.11;27.36
33151;BME280;19508;42.578;23.416;2023-03-19T11:10:32;94016.41;;;20.33;24.30
33151;BME280;19508;42.578;23.416;2023-03-19T11:13:02;94009.34;;;20.32;25.26
33151;BME280;19508;42.578;23.416;2023-03-19T11:15:36;94008.22;;;20.33;25.36
33151;BME280;19508;42.578;23.416;2023-03-19T11:18:23;94012.09;;;19.95;25.07
33151;BME280;19508;42.578;23.416;2023-03-19T11:21:00;93990.88;;;20.51;25.45
33151;BME280;19508;42.578;23.416;2023-03-19T11:23:37;93996.38;;;20.37;24.46
33151;BME280;19508;42.578;23.416;2023-03-19T11:26:03;93999.53;;;19.94;25.79
33151;BME280;19508;42.578;23.416;2023-03-19T11:28:29;93990.41;;;20.58;24.78
33151;BME280;19508;42.578;23.416;2023-03-19T11:31:27;93985.16;;;20.92;24.58
33151;BME280;19508;42.578;23.416;2023-03-19T11:34:18;93976.50;;;20.99;24.86
33151;BME280;19508;42.578;23.416;2023-03-19T11:53:07;93944.34;;;23.38;21.83
33151;BME280;19508;42.578;23.416;2023-03-19T11:55:40;93938.59;;;23.90;21.19
33151;BME280;19508;42.578;23.416;2023-03-19T12:01:12;93930.09;;;25.24;19.80
33151;BME280;19508;42.578;23.416;2023-03-19T12:09:22;93928.88;;;24.55;20.34
33151;BME280;19508;42.578;23.416;2023-03-19T12:12:11;93923.53;;;25.04;20.12
33151;BME280;19508;42.578;23.416;2023-03-19T12:14:52;93927.78;;;25.26;19.83
33151;BME280;19508;42.578;23.416;2023-03-19T12:17:51;93933.84;;;24.62;19.39
33151;BME280;19508;42.578;23.416;2023-03-19T12:20:41;93923.50;;;24.17;19.92
33151;BME280;19508;42.578;23.416;2023-03-19T12:23:38;93911.84;;;24.20;20.37
33151;BME280;19508;42.578;23.416;2023-03-19T12:26:07;93920.28;;;24.69;20.12
33151;BME280;19508;42.578;23.416;2023-03-19T12:31:27;93905.50;;;25.07;19.74
33151;BME280;19508;42.578;23.416;2023-03-19T12:34:28;93899.75;;;25.97;18.72
33151;BME280;19508;42.578;23.416;2023-03-19T12:39:35;93902.31;;;25.78;19.38
33151;BME280;19508;42.578;23.416;2023-03-19T12:42:04;93893.81;;;25.83;18.40
33151;BME280;19508;42.578;23.416;2023-03-19T12:44:38;93890.97;;;24.73;20.11
33151;BME280;19508;42.578;23.416;2023-03-19T12:47:09;93897.03;;;25.36;19.03
33151;BME280;19508;42.578;23.416;2023-03-19T12:49:43;93899.69;;;24.75;19.21
33151;BME280;19508;42.578;23.416;2023-03-19T13:00:00;93874.06;;;25.44;19.45
33151;BME280;19508;42.578;23.416;2023-03-19T13:02:34;93878.19;;;25.50;18.58
33151;BME280;19508;42.578;23.416;2023-03-19T13:05:25;93885.44;;;25.30;19.03
33151;BME280;19508;42.578;23.416;2023-03-19T13:08:05;93870.59;;;25.72;19.39
33151;BME280;19508;42.578;23.416;2023-03-19T13:10:36;93883.00;;;25.29;19.21
33151;BME280;19508;42.578;23.416;2023-03-19T13:13:14;93878.38;;;25.94;19.07
33151;BME280;19508;42.578;23.416;2023-03-19T13:15:46;93875.06;;;26.41;17.75
33151;BME280;19508;42.578;23.416;2023-03-19T13:18:20;93869.22;;;26.74;17.60
33151;BME280;19508;42.578;23.416;2023-03-19T13:21:25;93861.97;;;27.45;17.98
33151;BME280;19508;42.578;23.416;2023-03-19T13:24:46;93857.56;;;27.60;17.50
33151;BME280;19508;42.578;23.416;2023-03-19T13:26:48;93861.03;;;26.34;18.25
33151;BME280;19508;42.578;23.416;2023-03-19T13:29:50;93855.78;;;26.17;18.35
33151;BME280;19508;42.578;23.416;2023-03-19T13:32:42;93868.97;;;24.97;19.51
33151;BME280;19508;42.578;23.416;2023-03-19T13:38:26;93851.72;;;24.64;19.73
33151;BME280;19508;42.578;23.416;2023-03-19T13:40:56;93854.38;;;23.85;20.32
33151;BME280;19508;42.578;23.416;2023-03-19T13:53:39;93848.50;;;20.56;24.37
33151;BME280;19508;42.578;23.416;2023-03-19T13:56:11;93847.53;;;20.29;24.74
33151;BME280;19508;42.578;23.416;2023-03-19T13:58:49;93848.47;;;20.25;24.80
33151;BME280;19508;42.578;23.416;2023-03-19T14:04:01;93848.50;;;20.03;25.48
33151;BME280;19508;42.578;23.416;2023-03-19T14:06:34;93847.13;;;19.69;25.43
33151;BME280;19508;42.578;23.416;2023-03-19T14:09:01;93845.16;;;19.83;25.53
33151;BME280;19508;42.578;23.416;2023-03-19T14:11:32;93849.00;;;20.05;25.25
33151;BME280;19508;42.578;23.416;2023-03-19T14:14:02;93842.34;;;19.75;25.80
33151;BME280;19508;42.578;23.416;2023-03-19T14:16:37;93836.22;;;19.91;25.35
33151;BME280;19508;42.578;23.416;2023-03-19T14:19:11;93839.06;;;19.86;25.42